Lake Tahoe, California
Current Conditions -  °F | °C
As of 5:53 PM on Tuesday 21 Oct 2014 (Local Time) from KTVL Reporting Station
Scattered Clouds Scattered Clouds  
Wind Chill: 53°   Ceiling: Unl
Heat Index: 53°   Visibility: 10mi
Dew Point: 37°   Wind: 6mph
Humidity: 55%   Direction: 180°S
Pressure: 30.08"   Gusts: NA
Location:  38.9°N, 120°W
Report Text: KTVL 220053Z AUTO 18005KT 10SM SCT070 12/03 A3008 RMK AO2 SLP158 T01170028
Loading
Personal Weather Stations






























Interactive Weather Map
Tropical Storm Tracking
New forecast layout! Learn more

10-Day Weather Forecast

Advertisements
Track Severe Weather on mobile